Terminal Aerodrome Forecast
Issued by NWS

Home | Current Version | Previous Version | Text Only | Print | Product List | Glossary On
Versions: 1 2 3 4 5 6 7 8 9 10 11 12 13 14 15 16 17 18
000
FTUS46 KSGX 222048 AAA
TAFCRQ
TAF AMD
KCRQ 222048Z 2221/2318 24012KT P6SM FEW035
     FM230300 VRB03KT P6SM SCT025 BKN035
     FM231700 24006KT P6SM FEW025 SCT035=

USA.gov is the U.S. government's official web portal to all federal, state and local government web resources and services.